createdAt,value
2023-02-01T00:00:15.714Z,97911.31
2023-02-01T00:02:49.713Z,97919.16
2023-02-01T00:05:16.408Z,97915.47
2023-02-01T00:07:43.044Z,97913.97
2023-02-01T00:10:10.090Z,97911.41
2023-02-01T00:12:37.327Z,97913.72
2023-02-01T00:15:04.159Z,97913.34
2023-02-01T00:17:30.849Z,97912.13
2023-02-01T00:19:57.569Z,97915.53
2023-02-01T00:22:24.401Z,97919.22
2023-02-01T00:24:51.150Z,97917.22
2023-02-01T00:27:17.811Z,97921.03
2023-02-01T00:29:47.678Z,97920.34
2023-02-01T00:32:14.375Z,97922.16
2023-02-01T00:34:41.067Z,97921.16
2023-02-01T00:37:07.754Z,97927.00
2023-02-01T00:39:34.500Z,97925.31
2023-02-01T00:42:01.518Z,97915.91
2023-02-01T00:44:28.230Z,97921.78
2023-02-01T00:46:54.911Z,97919.28
2023-02-01T00:49:21.560Z,97917.81
2023-02-01T00:51:48.223Z,97916.22
2023-02-01T00:54:14.896Z,97912.38
2023-02-01T00:56:41.567Z,97915.50
2023-02-01T00:59:13.980Z,97916.25
2023-02-01T01:01:40.664Z,97918.66
2023-02-01T01:04:07.357Z,97920.16
2023-02-01T01:06:34.188Z,97911.91
2023-02-01T01:09:02.065Z,97909.88
2023-02-01T01:11:31.931Z,97899.84
2023-02-01T01:13:58.862Z,97906.84
2023-02-01T01:16:26.123Z,97912.22
2023-02-01T01:18:52.873Z,97911.38
2023-02-01T01:21:19.679Z,97905.50
2023-02-01T01:23:46.621Z,97903.56
2023-02-01T01:26:15.864Z,97906.81
2023-02-01T01:28:42.593Z,97902.59
2023-02-01T01:31:10.506Z,97899.84
2023-02-01T01:33:37.350Z,97899.44
2023-02-01T01:36:06.654Z,97899.44
2023-02-01T01:38:33.338Z,97900.69
2023-02-01T01:41:00.029Z,97913.66
2023-02-01T01:43:26.666Z,97919.53
2023-02-01T01:45:53.308Z,97917.34
2023-02-01T01:48:26.748Z,97915.09
2023-02-01T01:50:58.122Z,97907.69
2023-02-01T01:53:28.119Z,97906.84
2023-02-01T01:55:54.756Z,97903.28
2023-02-01T01:58:23.585Z,97905.94
2023-02-01T02:00:50.235Z,97901.59
2023-02-01T02:03:40.050Z,97892.09
2023-02-01T02:06:10.050Z,97899.94
2023-02-01T02:08:36.707Z,97891.44
2023-02-01T02:11:03.361Z,97891.13
2023-02-01T02:13:50.965Z,97892.28
2023-02-01T02:16:42.087Z,97890.75
2023-02-01T02:19:20.482Z,97886.81
2023-02-01T02:22:05.895Z,97884.16
2023-02-01T02:25:00.960Z,97875.13
2023-02-01T02:27:44.313Z,97865.63
2023-02-01T02:30:25.867Z,97867.03
2023-02-01T02:33:43.502Z,97869.28
2023-02-01T02:36:34.707Z,97863.81
2023-02-01T02:39:09.884Z,97871.25
2023-02-01T02:41:52.598Z,97867.09
2023-02-01T02:44:40.258Z,97863.59
2023-02-01T02:47:14.661Z,97869.56
2023-02-01T02:49:45.056Z,97873.38
2023-02-01T02:52:17.781Z,97875.84
2023-02-01T02:54:47.397Z,97875.56
2023-02-01T02:57:20.848Z,97874.72
2023-02-01T02:59:47.534Z,97878.66
2023-02-01T03:02:14.709Z,97878.28
2023-02-01T03:04:41.416Z,97878.66
2023-02-01T03:07:34.518Z,97878.28
2023-02-01T03:10:01.548Z,97875.72
2023-02-01T03:12:28.218Z,97884.38
2023-02-01T03:14:57.951Z,97875.84
2023-02-01T03:17:28.677Z,97887.91
2023-02-01T03:19:55.299Z,97877.97
2023-02-01T03:22:24.465Z,97883.59
2023-02-01T03:24:56.079Z,97884.88
2023-02-01T03:27:30.015Z,97894.09
2023-02-01T03:30:14.781Z,97898.59
2023-02-01T03:32:41.636Z,97895.25
2023-02-01T03:35:08.710Z,97892.59
2023-02-01T03:37:35.350Z,97890.47
2023-02-01T03:40:03.751Z,97885.00
2023-02-01T03:42:44.238Z,97881.81
2023-02-01T03:45:15.277Z,97889.94
2023-02-01T03:47:48.624Z,97888.41
2023-02-01T03:50:20.004Z,97882.41
2023-02-01T03:53:08.231Z,97883.41
2023-02-01T03:55:35.751Z,97890.50
2023-02-01T03:58:04.041Z,97892.19
2023-02-01T04:00:30.720Z,97891.88
2023-02-01T04:02:57.432Z,97891.47
2023-02-01T04:05:24.230Z,97889.84
2023-02-01T04:07:50.908Z,97891.13
2023-02-01T04:10:20.096Z,97888.59
2023-02-01T04:12:47.216Z,97897.53
2023-02-01T04:15:13.839Z,97899.44
2023-02-01T04:17:40.530Z,97891.81
2023-02-01T04:20:07.517Z,97897.09
2023-02-01T04:22:34.118Z,97904.06
2023-02-01T04:25:00.951Z,97904.66
2023-02-01T04:27:27.579Z,97914.28
2023-02-01T04:29:54.203Z,97908.97
2023-02-01T04:32:20.881Z,97911.25
2023-02-01T04:34:47.539Z,97916.56
2023-02-01T04:37:14.263Z,97920.75
2023-02-01T04:39:40.914Z,97918.09
2023-02-01T04:42:07.509Z,97920.75
2023-02-01T04:44:34.193Z,97924.63
2023-02-01T04:47:00.909Z,97919.91
2023-02-01T04:49:27.608Z,97922.16
2023-02-01T04:51:54.292Z,97922.16
2023-02-01T04:54:21.043Z,97933.72
2023-02-01T04:56:47.724Z,97929.41
2023-02-01T04:59:14.419Z,97914.19
2023-02-01T05:01:41.131Z,97926.59
2023-02-01T05:04:07.804Z,97927.53
2023-02-01T05:06:34.827Z,97935.31
2023-02-01T05:09:01.540Z,97931.00
2023-02-01T05:11:28.254Z,97935.72
2023-02-01T05:13:54.907Z,97932.38
2023-02-01T05:16:21.513Z,97936.53
2023-02-01T05:18:48.158Z,97936.28
2023-02-01T05:21:14.820Z,97930.94
2023-02-01T05:23:41.598Z,97931.78
2023-02-01T05:26:08.268Z,97947.16
2023-02-01T05:28:34.917Z,97948.41
2023-02-01T05:31:01.794Z,97954.69
2023-02-01T05:33:28.812Z,97954.59
2023-02-01T05:35:55.574Z,97963.22
2023-02-01T05:38:22.357Z,97966.56
2023-02-01T05:40:49.190Z,97964.75
2023-02-01T05:43:15.816Z,97976.34
2023-02-01T05:45:42.464Z,97984.72
2023-02-01T05:48:09.224Z,97990.16
2023-02-01T05:50:36.071Z,97987.50
2023-02-01T05:53:02.693Z,97983.56
2023-02-01T05:55:29.391Z,97978.19
2023-02-01T05:57:57.404Z,97983.47
2023-02-01T06:00:24.461Z,97992.81
2023-02-01T06:02:51.346Z,97991.44
2023-02-01T06:05:22.190Z,97986.84
2023-02-01T06:07:49.328Z,97992.44
2023-02-01T06:10:17.718Z,97993.13
2023-02-01T06:12:44.673Z,98005.16
2023-02-01T06:15:14.441Z,98011.97
2023-02-01T06:17:45.366Z,98008.06
2023-02-01T06:20:12.691Z,98004.56
2023-02-01T06:22:41.709Z,98008.00
2023-02-01T06:25:10.210Z,98006.28
2023-02-01T06:27:36.825Z,98010.19
2023-02-01T06:30:04.579Z,98006.84
2023-02-01T06:32:31.269Z,98017.75
2023-02-01T06:34:58.019Z,98006.84
2023-02-01T06:37:24.736Z,98016.34
2023-02-01T06:39:51.666Z,98016.88
2023-02-01T06:42:18.419Z,98022.50
2023-02-01T06:44:45.075Z,98030.56
2023-02-01T06:47:11.689Z,98028.94
2023-02-01T06:49:38.368Z,98037.25
2023-02-01T06:52:05.364Z,98041.75
2023-02-01T06:54:33.359Z,98040.63
2023-02-01T06:57:01.226Z,98040.31
2023-02-01T06:59:27.911Z,98046.72
2023-02-01T07:01:54.595Z,98050.75
2023-02-01T07:04:21.292Z,98049.47
2023-02-01T07:06:47.903Z,98042.88
2023-02-01T07:09:14.538Z,98037.44
2023-02-01T07:11:41.176Z,98037.03
2023-02-01T07:14:08.860Z,98043.59
2023-02-01T07:16:35.465Z,98043.31
2023-02-01T07:19:02.089Z,98054.09
2023-02-01T07:21:28.822Z,98060.25
2023-02-01T07:23:55.900Z,98056.75
2023-02-01T07:26:23.583Z,98055.22
2023-02-01T07:28:51.307Z,98067.50
2023-02-01T07:31:19.305Z,98062.00
2023-02-01T07:33:46.091Z,98053.59
2023-02-01T07:36:14.178Z,98044.59
2023-02-01T07:38:40.872Z,98054.69
2023-02-01T07:41:07.546Z,98054.78
2023-02-01T07:43:34.303Z,98041.63
2023-02-01T07:46:00.968Z,98050.72
2023-02-01T07:48:27.944Z,98053.16
2023-02-01T07:51:00.898Z,98051.19
2023-02-01T07:53:27.756Z,98049.13
2023-02-01T07:55:54.568Z,98057.63
2023-02-01T07:58:21.306Z,98053.00
2023-02-01T08:00:48.028Z,98038.50
2023-02-01T08:03:16.548Z,98041.84
2023-02-01T08:05:45.557Z,98033.72
2023-02-01T08:08:13.208Z,98027.56
2023-02-01T08:10:39.878Z,98036.53
2023-02-01T08:13:06.578Z,98032.59
2023-02-01T08:15:33.246Z,98049.22
2023-02-01T08:17:59.960Z,98051.56
2023-02-01T08:20:26.664Z,98060.38
2023-02-01T08:22:54.738Z,98070.97
2023-02-01T08:25:21.782Z,98077.94
2023-02-01T08:27:48.414Z,98078.31
2023-02-01T08:30:15.138Z,98073.28
2023-02-01T08:32:41.855Z,98080.78
2023-02-01T08:35:09.426Z,98075.47
2023-02-01T08:37:36.053Z,98079.19
2023-02-01T08:40:03.319Z,98074.19
2023-02-01T08:42:29.961Z,98069.84
2023-02-01T08:44:56.852Z,98067.19
2023-02-01T08:47:23.701Z,98078.81
2023-02-01T08:49:50.499Z,98075.69
2023-02-01T08:52:18.193Z,98085.94
2023-02-01T08:54:45.236Z,98091.66
2023-02-01T08:57:14.215Z,98079.19
2023-02-01T08:59:40.938Z,98074.56
2023-02-01T09:02:09.789Z,98068.56
2023-02-01T09:04:36.431Z,98072.22
2023-02-01T09:07:03.131Z,98081.19
2023-02-01T09:09:30.032Z,98089.75
2023-02-01T09:11:56.677Z,98103.38
2023-02-01T09:14:23.400Z,98114.34
2023-02-01T09:16:50.088Z,98102.16
2023-02-01T09:19:25.805Z,98094.16
2023-02-01T09:21:53.463Z,98088.78
2023-02-01T09:24:20.110Z,98095.22
2023-02-01T09:26:46.808Z,98115.91
2023-02-01T09:29:13.584Z,98124.25
2023-02-01T09:31:44.213Z,98115.91
2023-02-01T09:34:13.449Z,98118.81
2023-02-01T09:36:40.130Z,98126.25
2023-02-01T09:39:06.813Z,98126.63
2023-02-01T09:42:03.377Z,98126.00
2023-02-01T09:44:44.622Z,98139.97
2023-02-01T09:47:15.532Z,98139.69
2023-02-01T09:50:12.793Z,98138.38
2023-02-01T09:52:53.553Z,98143.19
2023-02-01T09:55:31.549Z,98144.50
2023-02-01T09:58:50.897Z,98153.03
2023-02-01T10:01:25.036Z,98151.38
2023-02-01T10:03:54.569Z,98148.91
2023-02-01T10:06:25.753Z,98151.38
2023-02-01T10:09:07.296Z,98147.25
2023-02-01T10:11:55.058Z,98155.56
2023-02-01T10:14:48.375Z,98161.75
2023-02-01T10:17:50.273Z,98151.06
2023-02-01T10:20:28.427Z,98152.56
2023-02-01T10:23:34.013Z,98163.75
2023-02-01T10:26:16.520Z,98158.75
2023-02-01T10:28:43.186Z,98151.06
2023-02-01T10:31:09.928Z,98149.72
2023-02-01T10:33:45.776Z,98135.88
2023-02-01T10:36:33.563Z,98138.66
2023-02-01T10:39:00.283Z,98137.94
2023-02-01T10:41:37.058Z,98137.31
2023-02-01T10:44:04.996Z,98136.66
2023-02-01T10:46:32.568Z,98129.81
2023-02-01T10:49:00.964Z,98124.81
2023-02-01T10:51:51.836Z,98118.84
2023-02-01T10:54:23.100Z,98124.19
2023-02-01T10:56:50.459Z,98119.88
2023-02-01T10:59:19.159Z,98116.38
2023-02-01T11:01:47.061Z,98106.53
2023-02-01T11:04:17.379Z,98103.66
2023-02-01T11:07:19.151Z,98092.31
2023-02-01T11:09:50.378Z,98087.97
2023-02-01T11:12:37.172Z,98079.63
2023-02-01T11:15:12.792Z,98081.00
2023-02-01T11:17:46.874Z,98078.81
2023-02-01T11:20:39.719Z,98077.09
2023-02-01T11:23:06.384Z,98069.22
2023-02-01T11:25:33.688Z,98069.34
2023-02-01T11:28:00.472Z,98058.56
2023-02-01T11:30:35.889Z,98056.00
2023-02-01T11:33:04.069Z,98050.63
2023-02-01T11:35:32.156Z,98040.41
2023-02-01T11:37:59.746Z,98045.75
2023-02-01T11:40:34.989Z,98039.53
2023-02-01T11:43:22.761Z,98029.09
2023-02-01T11:46:00.288Z,98034.19
2023-02-01T11:48:28.581Z,98028.00
2023-02-01T11:51:07.406Z,98030.69
2023-02-01T11:54:07.151Z,98028.31
2023-02-01T11:56:42.903Z,98024.56
2023-02-01T11:59:56.246Z,98025.75
2023-02-01T12:02:55.880Z,98011.63
2023-02-01T12:05:29.407Z,98004.91
2023-02-01T12:08:15.896Z,98009.03
2023-02-01T12:10:49.823Z,98017.00
2023-02-01T12:13:34.982Z,98013.63
2023-02-01T12:16:24.417Z,98014.22
2023-02-01T12:19:03.934Z,98019.84
2023-02-01T12:22:07.800Z,98014.97
2023-02-01T12:24:47.180Z,98017.38
2023-02-01T12:27:32.266Z,98014.50
2023-02-01T12:30:13.826Z,98012.38
2023-02-01T12:33:07.941Z,98015.69
2023-02-01T12:35:52.467Z,98013.75
2023-02-01T12:38:28.558Z,98009.38
2023-02-01T12:41:04.351Z,98000.84
2023-02-01T12:43:58.500Z,97989.84
2023-02-01T12:46:34.400Z,97992.31
2023-02-01T12:49:11.195Z,97988.38
2023-02-01T12:51:40.950Z,97971.91
2023-02-01T12:54:11.132Z,97970.34
2023-02-01T12:56:42.697Z,97973.31
2023-02-01T12:59:34.401Z,97979.63
2023-02-01T13:02:06.884Z,97974.94
2023-02-01T13:04:37.635Z,97972.03
2023-02-01T13:07:22.126Z,97966.69
2023-02-01T13:09:55.089Z,97978.16
2023-02-01T13:12:59.836Z,97987.28
2023-02-01T13:15:32.548Z,97984.19
2023-02-01T13:18:01.903Z,97964.78
2023-02-01T13:20:54.449Z,97963.75
2023-02-01T13:23:32.527Z,97957.06
2023-02-01T13:25:59.188Z,97952.31
2023-02-01T13:28:35.335Z,97948.16
2023-02-01T13:31:26.375Z,97952.44
2023-02-01T13:34:08.173Z,97953.09
2023-02-01T13:37:00.432Z,97931.50
2023-02-01T13:39:48.667Z,97923.56
2023-02-01T13:42:23.813Z,97914.88
2023-02-01T13:44:52.993Z,97916.22
2023-02-01T13:47:28.885Z,97917.47
2023-02-01T13:49:57.523Z,97910.47
2023-02-01T13:52:44.628Z,97905.69
2023-02-01T13:55:14.233Z,97908.09
2023-02-01T13:57:42.106Z,97920.00
2023-02-01T14:00:24.173Z,97929.59
2023-02-01T14:02:51.631Z,97930.78
2023-02-01T14:05:24.546Z,97927.47
2023-02-01T14:08:06.614Z,97932.81
2023-02-01T14:10:45.220Z,97925.56
2023-02-01T14:13:22.968Z,97923.06
2023-02-01T14:16:04.487Z,97929.00
2023-02-01T14:18:36.850Z,97919.84
2023-02-01T14:21:45.505Z,97923.91
2023-02-01T14:24:12.028Z,97931.22
2023-02-01T14:26:38.660Z,97919.50
2023-02-01T14:29:20.940Z,97919.84
2023-02-01T14:31:53.729Z,97914.16
2023-02-01T14:34:40.480Z,97916.47
2023-02-01T14:37:08.299Z,97911.16
2023-02-01T14:39:57.677Z,97906.41
2023-02-01T14:42:42.472Z,97893.03
2023-02-01T14:45:21.213Z,97898.03
2023-02-01T14:48:14.448Z,97903.69
2023-02-01T14:50:45.642Z,97903.00
2023-02-01T14:53:17.451Z,97910.22
2023-02-01T14:56:00.204Z,97914.84
2023-02-01T14:58:36.627Z,97910.22
2023-02-01T15:01:16.200Z,97914.84
2023-02-01T15:03:44.747Z,97911.78
2023-02-01T15:06:23.012Z,97912.34
2023-02-01T15:08:49.621Z,97910.22
2023-02-01T15:11:16.581Z,97916.81
2023-02-01T15:13:49.595Z,97917.47
2023-02-01T15:16:16.827Z,97913.78
2023-02-01T15:18:43.443Z,97919.16
2023-02-01T15:21:28.361Z,97928.34
2023-02-01T15:24:12.237Z,97938.53
2023-02-01T15:26:38.906Z,97935.66
2023-02-01T15:29:05.556Z,97947.94
2023-02-01T15:31:37.890Z,97945.91
2023-02-01T15:34:04.834Z,97944.06
2023-02-01T15:36:31.500Z,97935.75
2023-02-01T15:39:19.744Z,97937.88
2023-02-01T15:41:56.956Z,97948.16
2023-02-01T15:44:33.457Z,97947.91
2023-02-01T15:47:00.255Z,97957.78
2023-02-01T15:49:33.193Z,97968.31
2023-02-01T15:52:01.176Z,97966.94
2023-02-01T15:54:32.796Z,97967.13
2023-02-01T15:57:01.368Z,97978.13
2023-02-01T15:59:35.339Z,97969.56
2023-02-01T16:02:02.090Z,97968.06
2023-02-01T16:04:29.179Z,97973.44
2023-02-01T16:07:00.608Z,97977.28
2023-02-01T16:09:38.960Z,97982.00
2023-02-01T16:12:29.692Z,97982.06
2023-02-01T16:14:56.324Z,97997.91
2023-02-01T16:17:22.979Z,97998.88
2023-02-01T16:19:49.595Z,97997.41
2023-02-01T16:22:16.210Z,98001.63
2023-02-01T16:24:42.849Z,97995.97
2023-02-01T16:27:09.453Z,98019.13
2023-02-01T16:29:36.152Z,98016.47
2023-02-01T16:32:02.872Z,97997.03
2023-02-01T16:34:29.595Z,98008.22
2023-02-01T16:36:56.222Z,97999.53
2023-02-01T16:39:22.878Z,98003.09
2023-02-01T16:41:49.558Z,98006.47
2023-02-01T16:44:16.199Z,98012.47
2023-02-01T16:46:44.798Z,98025.03
2023-02-01T16:49:22.238Z,98021.66
2023-02-01T16:51:50.007Z,98033.53
2023-02-01T16:54:16.888Z,98030.56
2023-02-01T16:56:43.576Z,98032.94
2023-02-01T16:59:10.311Z,98036.97
2023-02-01T17:01:36.984Z,98038.50
2023-02-01T17:04:03.803Z,98037.00
2023-02-01T17:06:30.599Z,98030.03
2023-02-01T17:08:57.956Z,98028.41
2023-02-01T17:11:24.678Z,98026.69
2023-02-01T17:13:51.386Z,98036.72
2023-02-01T17:16:29.203Z,98044.78
2023-02-01T17:19:00.629Z,98034.41
2023-02-01T17:21:28.718Z,98029.19
2023-02-01T17:23:55.482Z,98031.47
2023-02-01T17:26:22.176Z,98030.59
2023-02-01T17:28:48.879Z,98040.59
2023-02-01T17:31:15.849Z,98032.16
2023-02-01T17:33:44.097Z,98029.97
2023-02-01T17:36:14.013Z,98035.72
2023-02-01T17:38:41.015Z,98039.03
2023-02-01T17:41:09.802Z,98046.41
2023-02-01T17:43:38.849Z,98043.75
2023-02-01T17:46:16.255Z,98042.53
2023-02-01T17:48:43.089Z,98037.03
2023-02-01T17:51:20.946Z,98036.25
2023-02-01T17:53:47.818Z,98032.19
2023-02-01T17:56:22.536Z,98037.19
2023-02-01T17:58:49.235Z,98040.06
2023-02-01T18:01:22.083Z,98036.06
2023-02-01T18:03:49.009Z,98049.28
2023-02-01T18:06:16.851Z,98055.13
2023-02-01T18:08:43.842Z,98063.34
2023-02-01T18:11:13.061Z,98060.78
2023-02-01T18:13:39.697Z,98064.31
2023-02-01T18:16:06.820Z,98062.63
2023-02-01T18:18:34.896Z,98050.78
2023-02-01T18:21:02.308Z,98046.50
2023-02-01T18:23:29.018Z,98056.84
2023-02-01T18:25:55.655Z,98049.00
2023-02-01T18:28:22.276Z,98055.53
2023-02-01T18:30:49.718Z,98051.69
2023-02-01T18:33:17.539Z,98054.69
2023-02-01T18:35:44.355Z,98052.00
2023-02-01T18:38:11.080Z,98052.00
2023-02-01T18:40:41.379Z,98058.53
2023-02-01T18:43:10.645Z,98061.84
2023-02-01T18:45:38.803Z,98061.91
2023-02-01T18:48:06.392Z,98065.88
2023-02-01T18:50:35.394Z,98067.06
2023-02-01T18:53:03.455Z,98062.22
2023-02-01T18:55:30.167Z,98060.53
2023-02-01T18:57:56.853Z,98052.84
2023-02-01T19:00:23.645Z,98046.22
2023-02-01T19:02:50.409Z,98055.53
2023-02-01T19:05:17.282Z,98056.88
2023-02-01T19:07:44.126Z,98058.56
2023-02-01T19:10:16.125Z,98054.69
2023-02-01T19:12:42.854Z,98056.69
2023-02-01T19:15:11.147Z,98055.03
2023-02-01T19:17:37.874Z,98056.19
2023-02-01T19:20:04.870Z,98064.19
2023-02-01T19:22:31.538Z,98064.91
2023-02-01T19:24:58.237Z,98062.38
2023-02-01T19:27:24.909Z,98056.38
2023-02-01T19:29:51.578Z,98055.66
2023-02-01T19:32:18.370Z,98062.38
2023-02-01T19:34:45.036Z,98062.38
2023-02-01T19:37:11.636Z,98060.16
2023-02-01T19:39:38.232Z,98069.06
2023-02-01T19:42:05.030Z,98072.13
2023-02-01T19:44:31.692Z,98076.47
2023-02-01T19:46:58.313Z,98079.44
2023-02-01T19:49:25.110Z,98077.56
2023-02-01T19:51:55.533Z,98085.97
2023-02-01T19:54:22.195Z,98078.47
2023-02-01T19:56:48.886Z,98087.31
2023-02-01T19:59:15.606Z,98082.94
2023-02-01T20:01:41.529Z,98086.97
2023-02-01T20:04:08.186Z,98090.63
2023-02-01T20:06:38.657Z,98089.28
2023-02-01T20:09:05.580Z,98086.91
2023-02-01T20:11:32.416Z,98088.25
2023-02-01T20:13:59.774Z,98087.59
2023-02-01T20:16:26.542Z,98097.44
2023-02-01T20:18:53.261Z,98097.28
2023-02-01T20:21:19.869Z,98103.13
2023-02-01T20:23:47.524Z,98092.56
2023-02-01T20:26:15.178Z,98096.59
2023-02-01T20:28:41.881Z,98089.28
2023-02-01T20:31:08.777Z,98096.78
2023-02-01T20:33:35.457Z,98100.81
2023-02-01T20:36:02.189Z,98104.63
2023-02-01T20:38:28.829Z,98105.66
2023-02-01T20:41:05.729Z,98109.44
2023-02-01T20:43:33.002Z,98114.78
2023-02-01T20:45:59.821Z,98112.63
2023-02-01T20:48:26.516Z,98110.28
2023-02-01T20:50:54.176Z,98113.44
2023-02-01T20:53:26.588Z,98111.94
2023-02-01T20:55:57.599Z,98107.91
2023-02-01T20:58:24.327Z,98114.25
2023-02-01T21:00:51.024Z,98110.91
2023-02-01T21:03:17.745Z,98111.25
2023-02-01T21:05:51.470Z,98106.25
2023-02-01T21:08:18.533Z,98115.94
2023-02-01T21:10:45.600Z,98107.25
2023-02-01T21:13:12.237Z,98120.28
2023-02-01T21:15:38.941Z,98114.09
2023-02-01T21:18:06.286Z,98107.06
2023-02-01T21:20:32.994Z,98102.56
2023-02-01T21:22:59.636Z,98111.91
2023-02-01T21:25:26.363Z,98110.75
2023-02-01T21:27:53.167Z,98111.94
2023-02-01T21:30:19.831Z,98103.25
2023-02-01T21:32:46.524Z,98097.19
2023-02-01T21:35:13.140Z,98104.09
2023-02-01T21:37:39.789Z,98101.44
2023-02-01T21:40:07.075Z,98106.25
2023-02-01T21:42:35.640Z,98110.81
2023-02-01T21:45:02.442Z,98111.00
2023-02-01T21:47:29.071Z,98111.31
2023-02-01T21:49:56.286Z,98111.31
2023-02-01T21:52:24.091Z,98109.63
2023-02-01T21:54:50.755Z,98103.44
2023-02-01T21:57:17.361Z,98104.63
2023-02-01T21:59:44.490Z,98097.94
2023-02-01T22:02:13.965Z,98108.81
2023-02-01T22:04:40.638Z,98115.34
2023-02-01T22:07:07.289Z,98133.03
2023-02-01T22:09:33.981Z,98129.69
2023-02-01T22:12:00.628Z,98138.03
2023-02-01T22:14:27.331Z,98133.75
2023-02-01T22:16:54.027Z,98142.91
2023-02-01T22:19:20.656Z,98143.06
2023-02-01T22:21:47.844Z,98139.88
2023-02-01T22:24:16.019Z,98136.53
2023-02-01T22:26:42.811Z,98144.06
2023-02-01T22:29:09.911Z,98145.06
2023-02-01T22:31:36.791Z,98151.72
2023-02-01T22:34:03.526Z,98157.78
2023-02-01T22:36:30.241Z,98156.59
2023-02-01T22:38:56.900Z,98155.09
2023-02-01T22:41:23.639Z,98155.25
2023-02-01T22:43:50.312Z,98165.44
2023-02-01T22:46:18.864Z,98166.13
2023-02-01T22:48:46.245Z,98164.78
2023-02-01T22:51:20.667Z,98164.13
2023-02-01T22:53:47.292Z,98163.44
2023-02-01T22:56:14.302Z,98156.09
2023-02-01T22:58:40.896Z,98148.41
2023-02-01T23:01:11.683Z,98156.09
2023-02-01T23:03:38.581Z,98152.59
2023-02-01T23:06:05.765Z,98150.56
2023-02-01T23:08:33.031Z,98153.94
2023-02-01T23:11:00.270Z,98159.75
2023-02-01T23:13:26.949Z,98159.41
2023-02-01T23:15:53.712Z,98158.59
2023-02-01T23:18:20.379Z,98148.72
2023-02-01T23:20:47.058Z,98147.88
2023-02-01T23:23:14.219Z,98143.41
2023-02-01T23:25:40.888Z,98144.75
2023-02-01T23:28:07.509Z,98144.75
2023-02-01T23:30:34.295Z,98148.44
2023-02-01T23:33:00.948Z,98147.75
2023-02-01T23:35:27.543Z,98145.25
2023-02-01T23:37:54.276Z,98141.53
2023-02-01T23:40:20.911Z,98142.75
2023-02-01T23:42:47.662Z,98140.06
2023-02-01T23:45:14.400Z,98135.88
2023-02-01T23:47:41.100Z,98138.38
2023-02-01T23:50:08.169Z,98131.69
2023-02-01T23:52:34.828Z,98126.03
2023-02-01T23:55:01.492Z,98120.34
2023-02-01T23:57:28.097Z,98122.38
2023-02-01T23:59:54.773Z,98118.34
